Time;durP1;ratioP1;P1;durP2;ratioP2;P2;SDS_P1;SDS_P2;PMS_P1;PMS_P2;Temp;Humidity;BMP_temperature;BMP_pressure;BME280_temperature;BME280_humidity;BME280_pressure;Samples;Min_cycle;Max_cycle;Signal;HPM_P1;HPM_P2
2022/02/27 00:00:08;;;;;;;;;;;;;;;2.51;68.29;101018.88;4945879;28;19972;-79
2022/02/27 00:02:33;;;;;;;;;;;;;;;2.50;68.00;101017.97;4961816;28;19929;-78
2022/02/27 00:04:59;;;;;;;;;;;;;;;2.53;68.12;101014.50;4946030;28;19922;-78
2022/02/27 00:07:24;;;;;;;;;;;;;;;2.52;67.98;101012.75;4960576;28;19970;-79
2022/02/27 00:09:49;;;;;;;;;;;;;;;2.51;67.89;101011.88;4962233;28;19922;-77
2022/02/27 00:12:14;;;;;;;;;;;;;;;2.54;67.82;101008.44;4948037;28;19953;-78
2022/02/27 00:14:40;;;;;;;;;;;;;;;2.54;67.81;101006.69;4960465;28;19926;-80
2022/02/27 00:17:05;;;;;;;;;;;;;;;2.55;67.63;101007.53;4958643;28;19930;-77
2022/02/27 00:19:30;;;;;;;;;;;;;;;2.58;67.60;101009.31;4962250;28;20021;-77
2022/02/27 00:21:56;;;;;;;;;;;;;;;2.57;67.65;101004.94;4962749;28;20289;-80
2022/02/27 00:24:21;;;;;;;;;;;;;;;2.54;67.55;101005.81;4943169;28;19926;-80
2022/02/27 00:26:46;;;;;;;;;;;;;;;2.59;67.45;101005.84;4953872;28;19933;-78
2022/02/27 00:29:11;;;;;;;;;;;;;;;2.59;67.47;101011.09;4958394;28;19930;-79
2022/02/27 00:31:37;;;;;;;;;;;;;;;2.59;67.35;101009.34;4960269;28;19926;-78
2022/02/27 00:34:02;;;;;;;;;;;;;;;2.62;67.31;101006.75;4957408;28;19933;-79
2022/02/27 00:36:27;;;;;;;;;;;;;;;2.62;67.37;101009.38;4962037;28;19985;-79
2022/02/27 00:38:52;;;;;;;;;;;;;;;2.61;67.25;101007.59;4961959;28;19933;-81
2022/02/27 00:41:18;;;;;;;;;;;;;;;2.63;66.98;101005.00;4952776;28;20394;-80
2022/02/27 00:43:43;;;;;;;;;;;;;;;2.63;67.12;101005.00;4962334;28;19922;-78
2022/02/27 00:46:09;;;;;;;;;;;;;;;2.65;67.06;100998.94;4960025;28;20342;-77
2022/02/27 00:48:35;;;;;;;;;;;;;;;2.65;67.08;100998.94;4962893;28;20025;-78
2022/02/27 00:51:01;;;;;;;;;;;;;;;2.72;67.55;100992.88;4946964;28;20336;-78
2022/02/27 00:53:26;;;;;;;;;;;;;;;3.01;69.88;100984.38;4948408;28;20376;-78
2022/02/27 00:55:51;;;;;;;;;;;;;;;3.17;72.47;100992.34;4958526;28;20329;-79
2022/02/27 00:58:16;;;;;;;;;;;;;;;3.25;74.79;100990.66;4963339;28;19922;-79
2022/02/27 01:00:42;;;;;;;;;;;;;;;3.28;76.78;100988.91;4944470;28;19953;-78
2022/02/27 01:03:07;;;;;;;;;;;;;;;3.32;78.46;100987.22;4962664;28;19922;-80
2022/02/27 01:05:32;;;;;;;;;;;;;;;3.37;79.76;100980.25;4963321;28;19918;-78
2022/02/27 01:07:57;;;;;;;;;;;;;;;3.58;82.34;100983.84;4961113;28;19929;-81
2022/02/27 01:10:23;;;;;;;;;;;;;;;3.61;84.41;100976.88;4957831;28;20013;-82
2022/02/27 01:12:48;;;;;;;;;;;;;;;3.55;85.93;100981.22;4945076;28;19949;-81
2022/02/27 01:15:14;;;;;;;;;;;;;;;3.50;87.31;100975.09;4957480;28;20456;-82
2022/02/27 01:17:39;;;;;;;;;;;;;;;3.53;88.37;100981.22;4966551;28;19918;-81
2022/02/27 01:20:05;;;;;;;;;;;;;;;3.61;89.02;100978.63;4965294;28;19969;-82
2022/02/27 01:22:31;;;;;;;;;;;;;;;3.47;89.84;100982.94;4948579;28;20619;-83
2022/02/27 01:24:56;;;;;;;;;;;;;;;3.42;91.33;100981.16;4963875;28;19927;-82
2022/02/27 01:27:22;;;;;;;;;;;;;;;3.37;92.88;100985.50;4947553;28;19923;-82
2022/02/27 01:29:47;;;;;;;;;;;;;;;3.37;94.40;100982.00;4948706;28;20318;-81
2022/02/27 01:32:12;;;;;;;;;;;;;;;3.57;96.26;100979.47;4964549;28;19922;-80
2022/02/27 01:34:38;;;;;;;;;;;;;;;3.73;98.25;100981.28;4946588;28;20029;-79
2022/02/27 01:37:03;;;;;;;;;;;;;;;3.89;100.00;100979.59;4948083;28;20564;-79
2022/02/27 01:39:30;;;;;;;;;;;;;;;4.06;100.00;100977.03;4964191;28;20290;-82
2022/02/27 01:41:55;;;;;;;;;;;;;;;4.16;100.00;100970.97;4948013;28;20035;-82
2022/02/27 01:44:37;;;;;;;;;;;;;;;4.25;100.00;100966.59;4949324;28;20075;-83
2022/02/27 01:47:04;;;;;;;;;;;;;;;4.32;100.00;100966.63;4945593;28;19918;-84
2022/02/27 01:49:30;;;;;;;;;;;;;;;4.36;100.00;100970.13;4965728;28;20007;-84
2022/02/27 01:51:55;;;;;;;;;;;;;;;4.34;100.00;100962.25;4949444;28;20025;-84
2022/02/27 01:54:21;;;;;;;;;;;;;;;4.46;100.00;100956.13;4948937;28;19953;-83
2022/02/27 01:56:46;;;;;;;;;;;;;;;4.51;100.00;100958.75;4950357;28;19965;-83
2022/02/27 01:59:11;;;;;;;;;;;;;;;4.51;100.00;100959.63;4965093;28;19922;-83
2022/02/27 02:01:37;;;;;;;;;;;;;;;4.53;100.00;100962.25;4963316;28;20306;-82
2022/02/27 02:04:02;;;;;;;;;;;;;;;4.54;100.00;100959.63;4949308;28;19928;-82
2022/02/27 02:06:27;;;;;;;;;;;;;;;4.62;100.00;100958.75;4955353;28;20402;-83
2022/02/27 02:08:52;;;;;;;;;;;;;;;4.69;100.00;100958.78;4948097;28;19922;-83
2022/02/27 02:11:18;;;;;;;;;;;;;;;4.70;100.00;100964.88;4948506;28;19928;-83
2022/02/27 02:13:44;;;;;;;;;;;;;;;4.78;100.00;100957.00;4949540;28;19942;-83
2022/02/27 02:16:09;;;;;;;;;;;;;;;4.78;100.00;100957.00;4956679;28;19945;-83
2022/02/27 02:18:37;;;;;;;;;;;;;;;4.84;100.00;100962.25;4964297;28;19933;-83
2022/02/27 02:21:02;;;;;;;;;;;;;;;4.86;100.00;100950.00;4965384;28;19922;-83
2022/02/27 04:29:10;;;;;;;;;;;;;;;3.13;91.87;100885.78;4957695;28;19984;-82
2022/02/27 04:31:37;;;;;;;;;;;;;;;3.09;91.19;100893.66;4962531;28;20190;-82
2022/02/27 04:34:03;;;;;;;;;;;;;;;2.94;90.63;100888.31;4963358;28;20425;-82
2022/02/27 04:36:28;;;;;;;;;;;;;;;2.90;90.58;100886.53;4963691;28;19923;-83
2022/02/27 04:38:54;;;;;;;;;;;;;;;3.02;90.50;100889.25;4964055;28;20268;-81
2022/02/27 04:41:19;;;;;;;;;;;;;;;2.99;89.91;100884.00;4962502;28;19929;-81
2022/02/27 04:43:45;;;;;;;;;;;;;;;2.99;89.50;100888.34;4963252;28;19919;-83
2022/02/27 04:46:10;;;;;;;;;;;;;;;2.82;89.16;100880.38;4963197;28;19922;-81
2022/02/27 04:48:36;;;;;;;;;;;;;;;2.72;88.77;100890.78;4963881;28;19918;-83
2022/02/27 04:51:01;;;;;;;;;;;;;;;2.73;88.42;100891.69;4963581;28;20009;-82
2022/02/27 04:53:26;;;;;;;;;;;;;;;2.65;88.22;100886.41;4945049;28;20009;-82
2022/02/27 04:55:51;;;;;;;;;;;;;;;2.73;88.01;100887.31;4955665;28;19922;-83
2022/02/27 04:58:17;;;;;;;;;;;;;;;2.68;87.75;100889.03;4946310;28;19922;-82
2022/02/27 05:00:42;;;;;;;;;;;;;;;2.56;87.64;100891.56;4946205;28;20388;-80
2022/02/27 05:03:07;;;;;;;;;;;;;;;2.60;87.20;100895.06;4962878;28;19918;-78
2022/02/27 05:05:32;;;;;;;;;;;;;;;2.56;86.79;100893.31;4963311;28;19918;-80
2022/02/27 05:07:58;;;;;;;;;;;;;;;2.57;86.61;100895.94;4963555;28;19929;-81
2022/02/27 05:10:23;;;;;;;;;;;;;;;2.46;85.88;100887.13;4961964;28;19919;-79
2022/02/27 05:12:48;;;;;;;;;;;;;;;2.49;86.12;100887.13;4963183;28;20309;-78
2022/02/27 05:15:14;;;;;;;;;;;;;;;2.61;85.33;100894.22;4963059;28;20349;-81
2022/02/27 05:17:39;;;;;;;;;;;;;;;2.46;85.11;100881.91;4963631;28;19945;-78
2022/02/27 05:20:05;;;;;;;;;;;;;;;2.42;85.51;100878.34;4963120;28;20013;-78
2022/02/27 05:22:30;;;;;;;;;;;;;;;2.51;86.47;100890.66;4945535;28;19922;-78
2022/02/27 05:24:56;;;;;;;;;;;;;;;2.57;86.97;100885.47;4942746;28;19919;-79
2022/02/27 05:27:21;;;;;;;;;;;;;;;2.52;87.04;100892.38;4962242;28;19922;-79
2022/02/27 05:29:47;;;;;;;;;;;;;;;2.49;87.12;100895.88;4954828;28;19922;-79
2022/02/27 05:32:12;;;;;;;;;;;;;;;2.36;87.17;100891.38;4962782;28;19969;-80
2022/02/27 05:34:37;;;;;;;;;;;;;;;2.45;86.91;100895.84;4963174;28;19918;-82
2022/02/27 05:37:03;;;;;;;;;;;;;;;2.32;86.82;100894.84;4962936;28;19925;-79
2022/02/27 05:39:28;;;;;;;;;;;;;;;2.39;86.52;100895.78;4945456;28;20286;-82
2022/02/27 05:41:53;;;;;;;;;;;;;;;2.34;86.28;100893.97;4944115;28;20357;-79
2022/02/27 05:44:18;;;;;;;;;;;;;;;2.19;86.28;100901.72;4945657;28;19918;-79
2022/02/27 05:46:43;;;;;;;;;;;;;;;2.23;86.25;100893.03;4945656;28;19918;-80
2022/02/27 05:49:09;;;;;;;;;;;;;;;2.23;85.94;100903.47;4945466;28;19925;-79
2022/02/27 05:51:34;;;;;;;;;;;;;;;2.18;85.48;100905.19;4945389;28;20485;-78
2022/02/27 05:53:59;;;;;;;;;;;;;;;2.16;85.51;100906.91;4963079;28;19918;-78
2022/02/27 05:56:24;;;;;;;;;;;;;;;2.15;85.77;100908.66;4944242;28;20024;-78
2022/02/27 05:58:51;;;;;;;;;;;;;;;2.13;85.35;100912.13;4965578;28;20045;-78
2022/02/27 06:01:16;;;;;;;;;;;;;;;2.13;85.07;100915.59;4966038;28;20366;-79
2022/02/27 13:49:20;;;;;;;;;;;;;;;4.29;100.00;100842.38;4945124;29;19934;-79
2022/02/27 13:51:46;;;;;;;;;;;;;;;4.37;100.00;100835.38;4946168;29;19922;-78
2022/02/27 13:54:19;;;;;;;;;;;;;;;4.37;100.00;100830.13;4947158;29;20274;-78
2022/02/27 13:57:00;;;;;;;;;;;;;;;4.43;100.00;100830.13;4929892;29;19926;-78
2022/02/27 13:59:25;;;;;;;;;;;;;;;4.51;100.00;100825.75;4947393;29;19922;-81
2022/02/27 14:01:58;;;;;;;;;;;;;;;4.57;100.00;100821.38;4946013;29;19923;-81
2022/02/27 14:04:23;;;;;;;;;;;;;;;4.58;100.00;100815.25;4930082;29;19923;-79
2022/02/27 14:06:50;;;;;;;;;;;;;;;4.61;100.00;100820.50;4930270;29;19970;-80
2022/02/27 14:09:15;;;;;;;;;;;;;;;4.67;100.00;100809.97;4947262;29;19925;-82
2022/02/27 14:11:41;;;;;;;;;;;;;;;4.70;100.00;100809.97;4927871;29;19923;-80
2022/02/27 14:14:07;;;;;;;;;;;;;;;4.75;100.00;100810.81;4929116;29;19933;-81
2022/02/27 14:16:33;;;;;;;;;;;;;;;4.75;100.00;100792.44;4945617;29;20397;-81
2022/02/27 14:18:59;;;;;;;;;;;;;;;4.82;100.00;100799.44;4939000;28;20005;-82
2022/02/27 14:21:26;;;;;;;;;;;;;;;4.79;100.00;100785.47;4945490;29;20014;-79
2022/02/27 14:23:58;;;;;;;;;;;;;;;4.84;100.00;100787.16;4929547;29;19918;-80
2022/02/27 14:26:29;;;;;;;;;;;;;;;4.87;100.00;100776.66;4929258;29;19960;-80
2022/02/27 14:28:56;;;;;;;;;;;;;;;4.16;100.00;100784.69;4941593;29;20395;-80
2022/02/27 14:31:28;;;;;;;;;;;;;;;3.54;100.00;100788.13;4945673;29;19985;-80
2022/02/27 14:33:56;;;;;;;;;;;;;;;3.40;100.00;100783.75;4929126;29;19929;-80
2022/02/27 14:36:21;;;;;;;;;;;;;;;3.27;98.54;100789.81;4946546;29;19923;-80
2022/02/27 14:38:47;;;;;;;;;;;;;;;3.05;96.57;100784.50;4927432;29;19926;-79
2022/02/27 14:41:12;;;;;;;;;;;;;;;3.05;95.33;100789.75;4921599;29;19982;-79
2022/02/27 14:43:40;;;;;;;;;;;;;;;3.09;93.81;100786.28;4922337;29;19919;-82
2022/02/27 14:46:05;;;;;;;;;;;;;;;2.87;92.84;100776.56;4942491;29;19922;-80
2022/02/27 14:48:31;;;;;;;;;;;;;;;2.92;92.14;100785.34;4921539;29;19933;-82
2022/02/27 14:50:56;;;;;;;;;;;;;;;2.85;91.17;100788.78;4928248;29;19941;-82
2022/02/27 14:53:21;;;;;;;;;;;;;;;2.81;90.33;100781.78;4928829;29;19956;-81
2022/02/27 14:55:46;;;;;;;;;;;;;;;2.77;89.80;100775.66;4928705;29;19919;-81
2022/02/27 14:58:12;;;;;;;;;;;;;;;2.68;88.93;100783.44;4928436;29;19949;-80
2022/02/27 15:00:37;;;;;;;;;;;;;;;2.65;88.28;100789.56;4945461;29;19965;-80
2022/02/27 15:03:02;;;;;;;;;;;;;;;2.67;87.89;100786.97;4945086;29;19927;-80
2022/02/27 15:05:27;;;;;;;;;;;;;;;2.59;86.95;100786.91;4945333;29;19926;-81
2022/02/27 15:07:53;;;;;;;;;;;;;;;2.53;86.27;100786.88;4944194;29;20006;-79
2022/02/27 15:10:18;;;;;;;;;;;;;;;2.62;86.08;100792.16;4928112;29;19922;-79
2022/02/27 15:12:43;;;;;;;;;;;;;;;2.51;84.88;100788.63;4928769;29;19929;-79
2022/02/27 15:15:09;;;;;;;;;;;;;;;2.39;84.38;100786.78;4945454;29;20326;-81
2022/02/27 15:17:34;;;;;;;;;;;;;;;2.40;84.40;100782.44;4926505;29;19930;-79
2022/02/27 15:20:00;;;;;;;;;;;;;;;2.37;84.17;100783.28;4928751;29;20437;-80
2022/02/27 15:22:25;;;;;;;;;;;;;;;2.35;83.64;100785.03;4928390;29;19918;-79
2022/02/27 15:24:51;;;;;;;;;;;;;;;2.29;83.23;100787.59;4945398;29;19965;-79
2022/02/27 15:27:16;;;;;;;;;;;;;;;2.36;83.09;100781.53;4945120;29;19929;-79
2022/02/27 15:29:41;;;;;;;;;;;;;;;2.30;82.91;100771.03;4944989;28;20374;-79
2022/02/27 15:32:07;;;;;;;;;;;;;;;2.22;82.59;100773.59;4944198;29;20013;-80
2022/02/27 15:34:32;;;;;;;;;;;;;;;2.34;82.88;100773.66;4945706;29;19918;-79
2022/02/27 15:36:57;;;;;;;;;;;;;;;2.14;82.59;100775.28;4945340;29;19969;-79
2022/02/27 15:39:22;;;;;;;;;;;;;;;2.10;82.42;100781.34;4944664;29;19930;-82
2022/02/27 15:41:48;;;;;;;;;;;;;;;2.10;82.27;100779.59;4945019;29;19938;-79
2022/02/27 15:44:13;;;;;;;;;;;;;;;2.14;82.22;100776.16;4943976;29;19919;-79
2022/02/27 15:46:38;;;;;;;;;;;;;;;2.11;82.10;100776.13;4920701;29;19923;-80
2022/02/27 15:49:03;;;;;;;;;;;;;;;2.17;82.13;100770.94;4943677;29;20615;-80
2022/02/27 15:51:40;;;;;;;;;;;;;;;1.96;81.69;100769.06;5079117;27;19951;-80
2022/02/27 15:54:06;;;;;;;;;;;;;;;2.02;81.86;100777.81;5080699;28;20335;-81
2022/02/27 15:56:34;;;;;;;;;;;;;;;2.03;81.81;100780.44;5079623;28;19923;-79
2022/02/27 15:59:04;;;;;;;;;;;;;;;1.96;81.70;100770.78;5078833;28;20026;-83
2022/02/27 16:01:29;;;;;;;;;;;;;;;1.99;81.71;100771.69;5077270;28;19921;-81
2022/02/27 16:03:54;;;;;;;;;;;;;;;1.95;81.51;100769.03;5076634;28;19917;-81
2022/02/27 16:06:21;;;;;;;;;;;;;;;1.95;81.50;100771.66;5077807;28;19920;-81
2022/02/27 16:08:46;;;;;;;;;;;;;;;1.92;81.24;100762.03;5078634;28;19924;-79
2022/02/27 16:11:12;;;;;;;;;;;;;;;1.86;81.49;100764.59;5077218;28;19917;-81
2022/02/27 16:13:37;;;;;;;;;;;;;;;1.78;81.51;100766.28;5077329;28;19920;-80
2022/02/27 16:16:02;;;;;;;;;;;;;;;1.84;81.43;100775.91;5109901;27;20057;-81
2022/02/27 16:18:28;;;;;;;;;;;;;;;1.84;81.42;100774.16;5076773;28;19920;-81
2022/02/27 16:20:53;;;;;;;;;;;;;;;1.83;81.34;100777.63;5077361;28;20355;-80
2022/02/27 16:23:18;;;;;;;;;;;;;;;1.81;81.26;100782.84;5077482;28;20026;-80
2022/02/27 16:28:19;;;;;;;;;;;;;;;1.86;80.92;100780.28;5052376;23;19936;-78
2022/02/27 16:30:44;;;;;;;;;;;;;;;1.75;81.02;100776.69;5035687;28;19917;-81
2022/02/27 16:33:09;;;;;;;;;;;;;;;1.83;81.28;100785.47;5034193;28;20307;-79
2022/02/27 16:35:34;;;;;;;;;;;;;;;1.74;80.93;100795.84;5033682;28;20000;-80
2022/02/27 16:38:00;;;;;;;;;;;;;;;1.79;81.18;100792.41;5037688;28;19925;-79
2022/02/27 16:40:28;;;;;;;;;;;;;;;1.82;80.69;100791.59;5019860;28;19917;-82
2022/02/27 16:42:54;;;;;;;;;;;;;;;1.71;80.61;100796.72;5032111;28;19921;-80
2022/02/27 16:45:19;;;;;;;;;;;;;;;1.77;81.05;100802.00;5035011;28;20008;-80
2022/02/27 16:47:45;;;;;;;;;;;;;;;1.76;80.55;100799.38;5032830;28;19930;-80
2022/02/27 16:50:10;;;;;;;;;;;;;;;1.73;80.65;100805.44;5037127;28;20812;-82
2022/02/27 16:52:35;;;;;;;;;;;;;;;1.78;80.58;100808.09;5032066;28;19921;-79
2022/02/27 16:55:01;;;;;;;;;;;;;;;1.68;80.34;100814.97;5036709;28;20300;-80
2022/02/27 16:57:26;;;;;;;;;;;;;;;1.75;80.34;100823.75;5037231;28;19921;-83
2022/02/27 16:59:51;;;;;;;;;;;;;;;1.67;80.22;100826.28;5037923;28;20300;-79
2022/02/27 17:02:16;;;;;;;;;;;;;;;1.61;80.35;100836.66;5025896;28;19956;-83
2022/02/27 17:04:42;;;;;;;;;;;;;;;1.70;80.03;100838.50;5025098;28;19947;-81
2022/02/27 17:07:07;;;;;;;;;;;;;;;1.59;80.01;100839.25;5024333;28;20311;-82
2022/02/27 17:09:32;;;;;;;;;;;;;;;1.59;79.85;100844.47;5024577;28;19921;-82
2022/02/27 17:12:00;;;;;;;;;;;;;;;1.68;79.91;100843.72;5024242;28;19992;-79
2022/02/27 17:14:26;;;;;;;;;;;;;;;1.62;80.22;100854.97;5023096;28;19925;-79
2022/02/27 17:16:51;;;;;;;;;;;;;;;1.60;80.01;100855.81;5021581;28;20087;-80
2022/02/27 17:19:16;;;;;;;;;;;;;;;1.77;79.71;100856.88;5023854;28;19917;-79
2022/02/27 17:21:42;;;;;;;;;;;;;;;1.61;79.72;100858.47;5018816;28;19925;-82
2022/02/27 17:24:08;;;;;;;;;;;;;;;1.54;79.42;100855.75;5022830;28;19918;-81
2022/02/27 17:26:34;;;;;;;;;;;;;;;1.63;79.70;100861.94;5022226;28;20364;-81
2022/02/27 17:28:59;;;;;;;;;;;;;;;1.55;79.37;100858.38;5024096;28;19924;-82
2022/02/27 17:31:25;;;;;;;;;;;;;;;1.55;79.81;100865.34;5022593;28;20295;-78
2022/02/27 17:33:50;;;;;;;;;;;;;;;1.54;79.43;100868.81;5022632;28;20324;-80
2022/02/27 17:36:16;;;;;;;;;;;;;;;1.55;79.45;100870.56;5022387;28;19925;-79
2022/02/27 17:38:41;;;;;;;;;;;;;;;1.54;79.24;100877.50;5024540;28;19917;-79
2022/02/27 17:41:08;;;;;;;;;;;;;;;1.51;79.16;100877.47;5024329;28;19917;-80
2022/02/27 17:43:34;;;;;;;;;;;;;;;1.52;79.32;100883.59;5022849;28;19922;-80
2022/02/27 17:45:59;;;;;;;;;;;;;;;1.55;79.38;100886.25;5021737;28;19917;-81
2022/02/27 17:48:24;;;;;;;;;;;;;;;1.53;79.00;100890.56;5020426;28;19925;-79
2022/02/27 17:50:49;;;;;;;;;;;;;;;1.59;79.20;100896.72;5017396;28;20007;-82
2022/02/27 17:53:15;;;;;;;;;;;;;;;1.55;79.17;100894.97;5020546;28;20455;-78
2022/02/27 17:55:40;;;;;;;;;;;;;;;1.50;79.19;100904.47;5021420;28;19994;-80
2022/02/27 17:58:06;;;;;;;;;;;;;;;1.54;78.95;100897.56;5023386;28;20386;-80
2022/02/27 18:00:31;;;;;;;;;;;;;;;1.54;79.06;100900.16;5020084;28;20326;-79
2022/02/27 18:02:56;;;;;;;;;;;;;;;1.45;79.11;100893.06;5016387;28;20373;-80
2022/02/27 18:05:22;;;;;;;;;;;;;;;1.49;78.73;100896.63;5020866;28;19922;-79
2022/02/27 18:07:47;;;;;;;;;;;;;;;1.46;79.04;100902.69;5021486;28;19932;-78
2022/02/27 18:10:12;;;;;;;;;;;;;;;1.47;78.87;100900.94;5018483;28;19928;-78
2022/02/27 18:12:38;;;;;;;;;;;;;;;1.57;78.86;100898.47;5022576;28;20348;-79
2022/02/27 18:15:06;;;;;;;;;;;;;;;1.46;78.57;100905.28;5023072;28;20008;-80
2022/02/27 18:17:31;;;;;;;;;;;;;;;1.50;78.55;100898.34;5019494;28;19930;-79
2022/02/27 18:19:57;;;;;;;;;;;;;;;1.54;78.60;100908.88;5020089;28;19951;-80
2022/02/27 18:22:22;;;;;;;;;;;;;;;1.57;78.39;100908.03;5021010;28;20000;-79
2022/02/27 18:24:47;;;;;;;;;;;;;;;1.47;78.28;100907.06;5019232;28;19926;-80
2022/02/27 18:27:13;;;;;;;;;;;;;;;1.53;78.30;100914.06;5021349;28;19948;-83
2022/02/27 18:29:39;;;;;;;;;;;;;;;1.48;78.00;100900.94;5020026;28;19929;-80
2022/02/27 18:32:05;;;;;;;;;;;;;;;1.40;78.33;100916.53;5017060;28;20272;-81
2022/02/27 18:34:30;;;;;;;;;;;;;;;1.48;78.30;100913.16;5016786;28;19931;-80
2022/02/27 18:36:56;;;;;;;;;;;;;;;1.54;78.12;100911.47;5014664;28;19925;-82
2022/02/27 18:39:21;;;;;;;;;;;;;;;1.47;77.90;100912.28;5021908;28;20407;-80
2022/02/27 18:41:46;;;;;;;;;;;;;;;1.53;77.64;100914.97;5022836;28;20365;-82
2022/02/27 18:44:12;;;;;;;;;;;;;;;1.42;77.54;100913.94;5021741;28;19921;-81
2022/02/27 18:46:37;;;;;;;;;;;;;;;1.61;77.52;100921.16;5020498;28;19917;-82
2022/02/27 18:49:02;;;;;;;;;;;;;;;1.48;77.68;100920.97;5018978;28;19929;-82
2022/02/27 18:51:28;;;;;;;;;;;;;;;1.44;77.39;100923.56;5016602;28;20285;-84
2022/02/27 18:53:55;;;;;;;;;;;;;;;1.54;77.17;100926.28;5021353;28;19932;-79
2022/02/27 18:56:21;;;;;;;;;;;;;;;1.58;77.38;100917.59;5022886;28;19924;-81
2022/02/27 18:58:46;;;;;;;;;;;;;;;1.64;77.08;100925.53;5019648;28;19925;-83
2022/02/27 19:01:11;;;;;;;;;;;;;;;1.43;76.67;100926.16;5021199;28;19921;-83
2022/02/27 19:03:37;;;;;;;;;;;;;;;1.59;77.11;100932.44;5018995;28;19965;-82
2022/02/27 19:06:03;;;;;;;;;;;;;;;1.54;76.95;100924.53;5016432;28;20265;-82
2022/02/27 19:08:29;;;;;;;;;;;;;;;1.93;76.84;100923.25;5020462;28;19925;-80
2022/02/27 19:10:54;;;;;;;;;;;;;;;1.83;77.21;100926.63;5019266;28;20365;-81
2022/02/27 19:13:23;;;;;;;;;;;;;;;1.75;77.05;100926.53;5017012;28;19983;-82
2022/02/27 19:15:48;;;;;;;;;;;;;;;1.66;76.94;100921.22;5016528;28;19928;-82
2022/02/27 19:18:13;;;;;;;;;;;;;;;1.71;77.03;100919.53;5018706;28;19925;-83
2022/02/27 19:20:39;;;;;;;;;;;;;;;1.65;77.32;100914.22;5020492;28;20032;-82
2022/02/27 19:23:06;;;;;;;;;;;;;;;1.59;77.17;100911.53;5020747;28;20007;-82
2022/02/27 19:25:31;;;;;;;;;;;;;;;1.67;77.01;100915.09;5021846;28;19917;-79
2022/02/27 19:27:56;;;;;;;;;;;;;;;1.65;76.84;100915.97;5014715;28;19921;-81
2022/02/27 19:30:24;;;;;;;;;;;;;;;1.72;76.83;100915.16;5022323;28;19921;-80
2022/02/27 19:32:49;;;;;;;;;;;;;;;1.72;76.63;100918.66;5012844;28;19966;-80
2022/02/27 19:35:15;;;;;;;;;;;;;;;1.68;76.49;100921.22;5021654;28;20035;-79
2022/02/27 19:37:41;;;;;;;;;;;;;;;1.70;76.33;100924.72;5022604;28;19971;-79
2022/02/27 19:40:07;;;;;;;;;;;;;;;1.65;76.24;100921.19;5021906;28;19925;-80
2022/02/27 19:42:33;;;;;;;;;;;;;;;1.72;76.17;100923.00;5022206;28;19922;-81
2022/02/27 19:44:58;;;;;;;;;;;;;;;1.75;75.77;100936.97;5020415;28;19975;-79
2022/02/27 19:47:23;;;;;;;;;;;;;;;1.65;75.83;100931.66;5016837;28;20430;-80
2022/02/27 19:49:49;;;;;;;;;;;;;;;1.71;75.94;100939.53;5019640;28;19924;-80
2022/02/27 19:52:14;;;;;;;;;;;;;;;1.68;75.86;100929.06;5021998;28;19921;-79
2022/02/27 19:54:40;;;;;;;;;;;;;;;1.71;75.85;100923.84;5018805;28;20356;-81
2022/02/27 19:57:06;;;;;;;;;;;;;;;1.70;75.90;100925.59;5021056;28;19971;-79
2022/02/27 19:59:32;;;;;;;;;;;;;;;1.73;75.56;100930.00;5020278;28;20373;-79
2022/02/27 20:02:01;;;;;;;;;;;;;;;1.71;75.45;100936.91;5019040;28;19965;-79
2022/02/27 20:04:26;;;;;;;;;;;;;;;1.71;75.54;100937.81;5021226;28;19921;-80
2022/02/27 20:06:52;;;;;;;;;;;;;;;1.72;75.40;100936.06;5022023;28;19921;-82
2022/02/27 20:12:01;;;;;;;;;;;;;;;1.71;75.08;100931.69;5021687;28;19925;-83
2022/02/27 20:14:27;;;;;;;;;;;;;;;1.72;75.08;100931.72;5020293;28;19921;-82
2022/02/27 20:16:53;;;;;;;;;;;;;;;1.73;75.22;100932.59;5020679;28;19928;-83
2022/02/27 20:19:18;;;;;;;;;;;;;;;1.72;74.88;100930.84;5021718;28;19921;-81
2022/02/27 20:21:43;;;;;;;;;;;;;;;1.74;74.83;100931.72;5021376;28;20000;-83
2022/02/27 20:24:08;;;;;;;;;;;;;;;1.69;74.59;100934.31;5018910;28;19921;-79
2022/02/27 20:26:34;;;;;;;;;;;;;;;1.70;74.48;100929.97;5020399;28;19921;-82
2022/02/27 20:28:59;;;;;;;;;;;;;;;1.72;74.62;100928.22;5017834;28;19971;-83
2022/02/27 20:31:25;;;;;;;;;;;;;;;1.72;74.61;100936.06;5017937;28;19961;-83
2022/02/27 20:33:52;;;;;;;;;;;;;;;1.78;74.48;100933.53;5016617;28;19932;-79
2022/02/27 20:36:18;;;;;;;;;;;;;;;1.69;74.33;100933.41;5022134;28;19933;-79
2022/02/27 20:38:43;;;;;;;;;;;;;;;1.75;74.16;100936.09;5023557;28;19925;-79
2022/02/27 20:41:09;;;;;;;;;;;;;;;1.73;74.33;100938.69;5025254;28;19917;-79
2022/02/27 20:43:34;;;;;;;;;;;;;;;1.78;74.05;100933.53;5023712;28;19922;-79
2022/02/27 20:45:59;;;;;;;;;;;;;;;1.73;74.09;100932.59;5022398;28;20390;-82
2022/02/27 20:48:24;;;;;;;;;;;;;;;1.73;74.08;100936.09;5022542;28;20348;-83
2022/02/27 20:50:50;;;;;;;;;;;;;;;1.76;73.76;100930.91;5023299;28;19917;-82
2022/02/27 20:53:16;;;;;;;;;;;;;;;1.71;73.73;100929.06;5023330;28;19917;-83
2022/02/27 20:55:41;;;;;;;;;;;;;;;1.78;73.82;100930.91;5007875;28;19940;-79
2022/02/27 20:58:06;;;;;;;;;;;;;;;1.75;73.74;100933.50;5022383;28;19921;-80
2022/02/27 21:00:32;;;;;;;;;;;;;;;1.76;73.56;100937.88;5023182;28;19921;-80
2022/02/27 21:02:57;;;;;;;;;;;;;;;1.74;73.61;100932.63;5023708;28;20344;-81
2022/02/27 21:05:22;;;;;;;;;;;;;;;1.83;73.53;100938.81;5023007;28;19921;-83
2022/02/27 21:07:48;;;;;;;;;;;;;;;1.80;73.19;100937.03;5019922;28;19921;-79
2022/02/27 21:10:14;;;;;;;;;;;;;;;1.84;73.20;100937.97;5020940;28;19925;-79
2022/02/27 21:12:40;;;;;;;;;;;;;;;1.77;72.88;100948.34;5023476;28;19932;-82
2022/02/27 21:15:05;;;;;;;;;;;;;;;1.84;72.86;100957.13;5021867;28;19921;-79
2022/02/27 21:17:31;;;;;;;;;;;;;;;1.74;72.79;100948.31;5020688;28;19933;-79
2022/02/27 21:19:56;;;;;;;;;;;;;;;1.83;72.60;100951.88;5021391;28;20275;-78
2022/02/27 21:22:21;;;;;;;;;;;;;;;1.82;72.56;100953.63;5021718;28;20391;-79
2022/02/27 21:24:46;;;;;;;;;;;;;;;1.79;72.78;100953.59;5024135;28;19987;-83
2022/02/27 21:27:12;;;;;;;;;;;;;;;1.89;72.49;100960.66;5023476;28;20477;-83
2022/02/27 21:29:38;;;;;;;;;;;;;;;1.79;72.21;100953.59;5021486;28;19921;-82
2022/02/27 21:32:03;;;;;;;;;;;;;;;1.87;72.14;100951.03;5020035;28;20032;-83
2022/02/27 21:34:28;;;;;;;;;;;;;;;1.78;72.33;100949.22;5022243;28;19929;-83
2022/02/27 21:36:54;;;;;;;;;;;;;;;1.88;72.25;100953.66;5020164;28;19925;-82
2022/02/27 21:39:24;;;;;;;;;;;;;;;1.92;72.11;100955.47;5021349;28;20387;-83
2022/02/27 21:41:49;;;;;;;;;;;;;;;1.91;71.85;100951.09;5020376;28;19927;-79
2022/02/27 21:44:15;;;;;;;;;;;;;;;1.89;71.78;100952.81;5023125;28;20408;-79
2022/02/27 21:46:40;;;;;;;;;;;;;;;1.89;71.75;100947.59;5020595;28;19921;-83
2022/02/27 21:49:05;;;;;;;;;;;;;;;1.86;71.74;100952.78;5019142;28;20394;-84
2022/02/27 21:51:30;;;;;;;;;;;;;;;1.86;71.89;100951.91;5021624;28;19944;-83
2022/02/27 21:53:56;;;;;;;;;;;;;;;1.83;71.81;100955.38;5020039;28;19930;-81
2022/02/27 21:56:22;;;;;;;;;;;;;;;1.86;71.87;100965.84;5020445;28;19924;-84
2022/02/27 21:58:48;;;;;;;;;;;;;;;1.88;71.60;100961.50;5019165;28;19921;-82
2022/02/27 22:01:14;;;;;;;;;;;;;;;1.82;71.59;100964.09;5019681;28;20529;-83
2022/02/27 22:03:39;;;;;;;;;;;;;;;1.90;71.66;100964.16;5021461;28;19921;-81
2022/02/27 22:06:04;;;;;;;;;;;;;;;1.85;71.74;100965.84;5015095;28;19930;-82
2022/02/27 22:08:29;;;;;;;;;;;;;;;1.83;71.52;100962.34;5024068;28;19917;-82
2022/02/27 22:10:55;;;;;;;;;;;;;;;1.85;71.85;100956.28;5022801;28;19948;-83
2022/02/27 22:13:20;;;;;;;;;;;;;;;1.86;71.50;100952.78;5023661;28;19917;-83
2022/02/27 22:15:45;;;;;;;;;;;;;;;1.79;71.52;100951.84;5023158;28;19921;-82
2022/02/27 22:18:10;;;;;;;;;;;;;;;1.88;71.49;100951.06;5022300;28;19929;-83
2022/02/27 22:20:36;;;;;;;;;;;;;;;1.86;71.55;100946.69;5017829;28;20265;-82
2022/02/27 22:23:01;;;;;;;;;;;;;;;1.88;71.38;100958.91;5021366;28;19932;-83
2022/02/27 22:25:26;;;;;;;;;;;;;;;1.90;71.37;100958.91;5023431;28;19921;-79
2022/02/27 22:27:52;;;;;;;;;;;;;;;1.96;71.46;100952.06;5021056;28;20012;-83
2022/02/27 22:30:17;;;;;;;;;;;;;;;1.84;71.06;100949.28;5022790;28;19917;-82
2022/02/27 22:32:43;;;;;;;;;;;;;;;1.94;71.49;100955.50;5020694;28;19917;-83